createdAt,value
2018-12-20T00:02:16.325Z,88.84
2018-12-20T00:04:45.618Z,88.91
2018-12-20T00:07:14.435Z,88.54
2018-12-20T00:09:43.219Z,87.88
2018-12-20T00:12:12.030Z,88.21
2018-12-20T00:14:40.841Z,88.26
2018-12-20T00:17:15.002Z,88.72
2018-12-20T00:19:43.773Z,88.41
2018-12-20T00:22:13.007Z,88.10
2018-12-20T00:24:41.780Z,88.45
2018-12-20T00:27:11.767Z,88.33
2018-12-20T00:29:40.767Z,88.63
2018-12-20T00:32:09.648Z,88.37
2018-12-20T00:34:38.376Z,88.35
2018-12-20T00:37:07.156Z,88.44
2018-12-20T00:39:35.925Z,88.09
2018-12-20T00:42:04.746Z,88.34
2018-12-20T00:44:37.342Z,87.86
2018-12-20T00:47:03.651Z,87.90
2018-12-20T00:49:32.327Z,88.26
2018-12-20T00:52:01.170Z,88.00
2018-12-20T00:54:30.011Z,88.26
2018-12-20T00:56:58.823Z,87.75
2018-12-20T00:59:27.518Z,87.58
2018-12-20T01:01:56.331Z,88.18
2018-12-20T01:04:25.148Z,88.09
2018-12-20T01:06:54.744Z,88.10
2018-12-20T01:09:23.602Z,88.00
2018-12-20T01:11:52.374Z,87.74
2018-12-20T01:14:21.158Z,87.74
2018-12-20T01:16:50.552Z,87.97
2018-12-20T01:19:20.231Z,87.73
2018-12-20T01:21:48.875Z,87.78
2018-12-20T01:24:17.663Z,87.59
2018-12-20T01:26:46.455Z,88.09
2018-12-20T01:29:15.342Z,87.80
2018-12-20T01:31:44.136Z,88.06
2018-12-20T01:34:12.871Z,88.16
2018-12-20T01:36:41.747Z,87.82
2018-12-20T01:39:10.486Z,87.60
2018-12-20T01:41:39.298Z,87.47
2018-12-20T01:44:08.058Z,87.58
2018-12-20T01:46:36.906Z,87.81
2018-12-20T01:49:05.659Z,87.84
2018-12-20T01:51:34.570Z,87.62
2018-12-20T01:54:03.527Z,87.43
2018-12-20T01:56:32.432Z,88.24
2018-12-20T01:59:01.155Z,87.20
2018-12-20T02:01:29.980Z,87.54
2018-12-20T02:03:58.805Z,87.73
2018-12-20T02:06:27.536Z,87.83
2018-12-20T02:08:56.913Z,87.36
2018-12-20T02:11:25.829Z,87.23
2018-12-20T02:13:54.493Z,87.27
2018-12-20T02:16:23.296Z,87.38
2018-12-20T02:18:53.380Z,86.92
2018-12-20T02:21:22.026Z,87.10
2018-12-20T02:23:51.040Z,86.93
2018-12-20T02:26:19.823Z,86.97
2018-12-20T02:28:49.026Z,86.79
2018-12-20T02:31:18.610Z,86.62
2018-12-20T02:33:47.386Z,87.07
2018-12-20T02:36:16.180Z,87.25
2018-12-20T02:38:44.987Z,86.88
2018-12-20T02:41:13.775Z,86.58
2018-12-20T02:43:42.830Z,87.27
2018-12-20T02:46:11.502Z,86.53
2018-12-20T02:48:40.265Z,86.95
2018-12-20T02:51:08.990Z,86.87
2018-12-20T02:53:37.752Z,86.85
2018-12-20T02:56:06.615Z,86.72
2018-12-20T02:58:35.403Z,86.68
2018-12-20T03:01:05.140Z,86.39
2018-12-20T03:03:34.702Z,86.87
2018-12-20T03:06:03.469Z,86.52
2018-12-20T03:08:32.434Z,86.87
2018-12-20T03:11:01.263Z,86.58
2018-12-20T03:13:30.198Z,86.47
2018-12-20T03:15:59.344Z,86.45
2018-12-20T03:18:28.103Z,86.43
2018-12-20T03:20:56.863Z,86.19
2018-12-20T03:23:25.647Z,86.54
2018-12-20T03:25:54.744Z,86.45
2018-12-20T03:28:24.043Z,85.92
2018-12-20T03:30:53.716Z,86.13
2018-12-20T03:33:22.313Z,86.13
2018-12-20T03:35:51.122Z,86.47
2018-12-20T03:38:19.902Z,86.32
2018-12-20T03:40:48.710Z,85.90
2018-12-20T03:43:17.492Z,86.00
2018-12-20T03:45:46.273Z,86.39
2018-12-20T03:48:15.214Z,86.54
2018-12-20T03:50:44.130Z,86.42
2018-12-20T03:53:12.752Z,86.37
2018-12-20T03:55:41.547Z,85.89
2018-12-20T03:58:10.538Z,85.99
2018-12-20T04:00:40.891Z,86.07
2018-12-20T04:03:09.856Z,85.94
2018-12-20T04:05:38.610Z,85.98
2018-12-20T04:08:07.485Z,86.19
2018-12-20T04:10:36.054Z,86.28
2018-12-20T04:13:04.855Z,86.02
2018-12-20T04:15:37.739Z,86.41
2018-12-20T04:18:02.635Z,86.10
2018-12-20T04:20:31.841Z,86.36
2018-12-20T04:23:00.631Z,86.56
2018-12-20T04:25:29.460Z,86.38
2018-12-20T04:27:58.190Z,86.56
2018-12-20T04:30:27.133Z,86.63
2018-12-20T04:32:56.299Z,86.67
2018-12-20T04:35:24.803Z,87.03
2018-12-20T04:37:54.131Z,86.90
2018-12-20T04:40:22.958Z,86.89
2018-12-20T04:42:51.766Z,87.04
2018-12-20T04:45:20.668Z,87.24
2018-12-20T04:47:50.229Z,86.83
2018-12-20T04:50:19.702Z,87.21
2018-12-20T04:52:48.485Z,87.32
2018-12-20T04:55:17.392Z,87.40
2018-12-20T04:57:47.579Z,87.59
2018-12-20T05:00:17.335Z,87.31
2018-12-20T05:02:46.091Z,87.66
2018-12-20T05:05:15.035Z,87.50
2018-12-20T05:07:43.819Z,87.46
2018-12-20T05:10:12.679Z,87.57
2018-12-20T05:12:41.347Z,88.16
2018-12-20T05:15:10.056Z,87.53
2018-12-20T05:17:38.811Z,88.14
2018-12-20T05:20:07.610Z,87.83
2018-12-20T05:22:36.505Z,88.08
2018-12-20T05:25:05.725Z,87.98
2018-12-20T05:27:34.324Z,88.29
2018-12-20T05:30:03.928Z,87.83
2018-12-20T05:32:32.661Z,88.19
2018-12-20T05:35:01.712Z,87.57
2018-12-20T05:37:30.311Z,88.06
2018-12-20T05:40:00.835Z,88.23
2018-12-20T05:42:29.528Z,87.94
2018-12-20T05:44:58.255Z,87.88
2018-12-20T05:47:27.566Z,87.33
2018-12-20T05:49:56.359Z,88.05
2018-12-20T05:52:25.185Z,88.15
2018-12-20T05:54:53.963Z,88.06
2018-12-20T05:57:22.804Z,87.85
2018-12-20T05:59:51.653Z,87.93
2018-12-20T06:02:20.439Z,87.91
2018-12-20T06:04:50.323Z,88.10
2018-12-20T06:07:19.267Z,88.16
2018-12-20T06:09:48.680Z,87.96
2018-12-20T06:12:17.581Z,88.27
2018-12-20T06:14:46.672Z,87.65
2018-12-20T06:17:15.443Z,87.59
2018-12-20T06:19:44.235Z,87.87
2018-12-20T06:22:14.021Z,87.98
2018-12-20T06:24:43.215Z,88.01
2018-12-20T06:27:12.002Z,87.95
2018-12-20T06:29:41.452Z,87.36
2018-12-20T06:32:10.253Z,87.92
2018-12-20T06:34:39.035Z,87.43
2018-12-20T06:37:08.336Z,87.31
2018-12-20T06:39:37.170Z,87.30
2018-12-20T06:42:06.530Z,87.39
2018-12-20T06:44:35.847Z,87.40
2018-12-20T06:47:05.105Z,87.17
2018-12-20T06:49:33.904Z,87.18
2018-12-20T06:52:02.794Z,87.17
2018-12-20T06:54:31.582Z,87.16
2018-12-20T06:57:00.368Z,87.34
2018-12-20T06:59:29.208Z,87.30
2018-12-20T07:01:59.174Z,87.40
2018-12-20T07:04:28.983Z,87.55
2018-12-20T07:06:57.813Z,87.33
2018-12-20T07:09:26.611Z,87.55
2018-12-20T07:11:55.404Z,87.50
2018-12-20T07:14:24.202Z,87.27
2018-12-20T07:16:52.996Z,87.49
2018-12-20T07:19:21.786Z,87.43
2018-12-20T07:21:51.539Z,87.48
2018-12-20T07:24:20.719Z,87.21
2018-12-20T07:26:49.487Z,87.36
2018-12-20T07:29:18.315Z,87.26
2018-12-20T07:31:47.098Z,87.03
2018-12-20T07:34:17.437Z,86.95
2018-12-20T07:36:46.283Z,87.35
2018-12-20T07:39:15.081Z,86.99
2018-12-20T07:41:43.975Z,86.79
2018-12-20T07:44:12.757Z,87.33
2018-12-20T07:46:41.559Z,87.01
2018-12-20T07:49:10.356Z,87.15
2018-12-20T07:51:39.221Z,86.32
2018-12-20T07:54:08.026Z,86.81
2018-12-20T07:56:36.803Z,86.77
2018-12-20T07:59:05.591Z,86.70
2018-12-20T08:01:34.379Z,86.67
2018-12-20T08:04:03.569Z,87.04
2018-12-20T08:06:32.047Z,86.55
2018-12-20T08:09:00.839Z,86.46
2018-12-20T08:11:29.654Z,86.59
2018-12-20T08:13:58.473Z,86.64
2018-12-20T08:16:28.694Z,86.47
2018-12-20T08:18:58.170Z,86.40
2018-12-20T08:21:26.943Z,86.76
2018-12-20T08:23:55.781Z,86.13
2018-12-20T08:26:24.612Z,86.00
2018-12-20T08:28:53.397Z,86.31
2018-12-20T08:31:22.182Z,86.06
2018-12-20T08:33:50.966Z,86.11
2018-12-20T08:36:19.742Z,86.06
2018-12-20T08:38:48.598Z,85.97
2018-12-20T08:41:17.395Z,86.25
2018-12-20T08:43:46.199Z,85.91
2018-12-20T08:46:14.991Z,85.89
2018-12-20T08:48:43.802Z,85.99
2018-12-20T08:51:12.580Z,85.71
2018-12-20T08:53:41.372Z,85.69
2018-12-20T08:56:10.164Z,85.72
2018-12-20T08:58:38.951Z,85.36
2018-12-20T09:01:07.762Z,85.56
2018-12-20T09:03:36.735Z,85.81
2018-12-20T09:06:05.599Z,85.73
2018-12-20T09:08:34.397Z,85.41
2018-12-20T09:11:03.179Z,85.42
2018-12-20T09:13:32.010Z,85.76
2018-12-20T09:16:00.799Z,85.37
2018-12-20T09:18:29.600Z,85.76
2018-12-20T09:20:58.387Z,85.51
2018-12-20T09:23:27.250Z,85.25
2018-12-20T09:25:56.055Z,84.87
2018-12-20T09:28:24.964Z,85.17
2018-12-20T09:30:53.802Z,85.02
2018-12-20T09:33:22.675Z,84.84
2018-12-20T09:35:51.475Z,84.98
2018-12-20T09:38:20.276Z,84.75
2018-12-20T09:40:49.062Z,84.37
2018-12-20T09:43:17.861Z,83.80
2018-12-20T09:45:46.639Z,83.96
2018-12-20T09:48:15.433Z,83.52
2018-12-20T09:50:44.220Z,83.70
2018-12-20T09:53:13.015Z,83.43
2018-12-20T09:55:41.813Z,83.60
2018-12-20T09:58:11.570Z,83.69
2018-12-20T10:00:40.342Z,83.24
2018-12-20T10:03:09.144Z,83.24
2018-12-20T10:05:37.936Z,82.59
2018-12-20T10:08:06.807Z,82.86
2018-12-20T10:10:35.651Z,83.24
2018-12-20T10:13:04.690Z,82.95
2018-12-20T10:15:37.140Z,82.72
2018-12-20T10:18:04.108Z,82.90
2018-12-20T10:20:32.897Z,82.94
2018-12-20T10:23:01.676Z,82.20
2018-12-20T10:25:31.011Z,82.30
2018-12-20T10:27:59.815Z,82.58
2018-12-20T10:30:28.608Z,82.55
2018-12-20T10:32:57.439Z,82.45
2018-12-20T10:35:26.225Z,82.08
2018-12-20T10:37:55.019Z,82.57
2018-12-20T10:40:23.826Z,82.65
2018-12-20T10:42:52.666Z,82.33
2018-12-20T10:45:21.463Z,82.52
2018-12-20T10:47:50.231Z,82.16
2018-12-20T10:50:19.055Z,82.32
2018-12-20T10:52:47.857Z,82.45
2018-12-20T10:55:16.654Z,82.20
2018-12-20T10:57:48.582Z,82.00
2018-12-20T11:00:17.367Z,82.19
2018-12-20T11:02:51.609Z,82.36
2018-12-20T11:05:23.481Z,82.39
2018-12-20T11:07:56.872Z,81.98
2018-12-20T11:10:27.866Z,82.77
2018-12-20T11:12:57.051Z,82.84
2018-12-20T11:15:25.867Z,82.75
2018-12-20T11:17:54.664Z,82.99
2018-12-20T11:20:24.336Z,82.95
2018-12-20T11:22:53.879Z,82.62
2018-12-20T11:25:22.738Z,83.04
2018-12-20T11:27:51.824Z,83.03
2018-12-20T11:30:20.603Z,83.28
2018-12-20T11:32:49.410Z,83.00
2018-12-20T11:35:18.213Z,82.86
2018-12-20T11:37:47.116Z,82.37
2018-12-20T11:40:15.967Z,82.25
2018-12-20T11:42:44.786Z,82.11
2018-12-20T11:45:13.593Z,82.08
2018-12-20T11:47:46.085Z,81.95
2018-12-20T11:50:11.178Z,81.75
2018-12-20T11:52:42.510Z,81.68
2018-12-20T11:55:09.635Z,81.76
2018-12-20T11:57:38.436Z,81.82
2018-12-20T12:00:09.450Z,81.63
2018-12-20T12:02:38.331Z,81.59
2018-12-20T12:05:07.103Z,81.73
2018-12-20T12:07:36.503Z,81.80
2018-12-20T12:10:06.340Z,81.49
2018-12-20T12:12:35.623Z,81.40
2018-12-20T12:15:04.710Z,81.72
2018-12-20T12:17:33.515Z,81.62
2018-12-20T12:20:02.314Z,81.79
2018-12-20T12:22:31.162Z,81.66
2018-12-20T12:25:00.507Z,81.59
2018-12-20T12:27:29.339Z,81.80
2018-12-20T12:29:59.351Z,82.06
2018-12-20T12:32:28.134Z,82.09
2018-12-20T12:34:56.935Z,81.97
2018-12-20T12:37:25.754Z,81.93
2018-12-20T12:39:56.840Z,82.21
2018-12-20T12:42:25.638Z,81.98
2018-12-20T12:44:54.433Z,81.97
2018-12-20T12:47:28.573Z,81.82
2018-12-20T12:49:57.368Z,82.03
2018-12-20T12:52:26.149Z,81.86
2018-12-20T12:54:54.935Z,82.10
2018-12-20T12:57:23.747Z,82.16
2018-12-20T12:59:52.632Z,82.37
2018-12-20T13:02:21.703Z,82.50
2018-12-20T13:04:50.509Z,82.86
2018-12-20T13:07:19.295Z,83.29
2018-12-20T13:09:48.094Z,83.17
2018-12-20T13:12:18.010Z,83.30
2018-12-20T13:14:47.838Z,83.29
2018-12-20T13:17:16.648Z,83.25
2018-12-20T13:19:45.473Z,83.72
2018-12-20T13:22:14.315Z,83.53
2018-12-20T13:24:43.583Z,83.46
2018-12-20T13:27:12.397Z,83.67
2018-12-20T13:29:41.184Z,83.80
2018-12-20T13:32:09.980Z,83.34
2018-12-20T13:34:38.832Z,84.04
2018-12-20T13:37:15.628Z,84.18
2018-12-20T13:39:36.595Z,83.69
2018-12-20T13:42:06.080Z,84.40
2018-12-20T13:44:34.918Z,84.06
2018-12-20T13:47:04.763Z,83.66
2018-12-20T13:49:33.628Z,83.85
2018-12-20T13:52:02.479Z,83.93
2018-12-20T13:54:31.339Z,83.87
2018-12-20T13:57:00.164Z,83.70
2018-12-20T13:59:28.947Z,83.94
2018-12-20T14:01:57.738Z,83.97
2018-12-20T14:04:26.647Z,83.98
2018-12-20T14:06:55.466Z,83.79
2018-12-20T14:09:24.272Z,84.05
2018-12-20T14:11:53.368Z,83.99
2018-12-20T14:14:23.903Z,84.08
2018-12-20T14:16:52.672Z,84.35
2018-12-20T14:19:22.066Z,84.00
2018-12-20T14:21:50.860Z,83.70
2018-12-20T14:24:22.443Z,83.76
2018-12-20T14:26:51.239Z,84.13
2018-12-20T14:29:20.833Z,84.05
2018-12-20T14:31:50.144Z,84.20
2018-12-20T14:34:20.036Z,84.29
2018-12-20T14:36:52.742Z,84.15
2018-12-20T14:39:21.557Z,84.29
2018-12-20T14:41:50.354Z,84.36
2018-12-20T14:44:19.136Z,84.13
2018-12-20T14:46:47.925Z,84.62
2018-12-20T14:49:16.799Z,84.27
2018-12-20T14:51:45.597Z,84.54
2018-12-20T14:54:14.665Z,84.02
2018-12-20T14:56:43.472Z,84.39
2018-12-20T14:59:13.895Z,84.63
2018-12-20T15:01:43.180Z,84.62
2018-12-20T15:04:11.988Z,84.47
2018-12-20T15:06:41.591Z,84.45
2018-12-20T15:09:10.367Z,84.64
2018-12-20T15:11:39.172Z,84.33
2018-12-20T15:14:07.959Z,84.19
2018-12-20T15:16:36.760Z,84.53
2018-12-20T15:19:05.556Z,84.45
2018-12-20T15:21:35.063Z,84.38
2018-12-20T15:24:04.869Z,84.64
2018-12-20T15:26:33.968Z,84.55
2018-12-20T15:29:02.764Z,84.30
2018-12-20T15:31:31.620Z,84.35
2018-12-20T15:34:00.415Z,84.54
2018-12-20T15:36:29.820Z,84.66
2018-12-20T15:38:59.417Z,85.00
2018-12-20T15:41:28.212Z,84.99
2018-12-20T15:43:57.046Z,84.98
2018-12-20T15:46:26.482Z,84.83
2018-12-20T15:48:59.405Z,85.45
2018-12-20T15:51:28.212Z,85.18
2018-12-20T15:53:57.026Z,85.26
2018-12-20T15:56:25.838Z,85.20
2018-12-20T15:58:54.619Z,85.37
2018-12-20T16:01:23.680Z,85.37
2018-12-20T16:03:55.078Z,85.44
2018-12-20T16:06:23.853Z,85.30
2018-12-20T16:08:52.655Z,85.42
2018-12-20T16:11:21.562Z,85.20
2018-12-20T16:13:57.053Z,85.38
2018-12-20T16:16:26.758Z,85.17
2018-12-20T16:18:55.755Z,85.26
2018-12-20T16:21:24.516Z,85.50
2018-12-20T16:23:53.352Z,85.39
2018-12-20T16:26:23.084Z,85.69
2018-12-20T16:28:51.884Z,85.39
2018-12-20T16:31:20.731Z,85.58
2018-12-20T16:33:49.522Z,85.41
2018-12-20T16:36:18.343Z,85.78
2018-12-20T16:38:47.991Z,85.51
2018-12-20T16:41:16.791Z,85.71
2018-12-20T16:43:45.596Z,85.19
2018-12-20T16:46:14.410Z,85.33
2018-12-20T16:48:43.205Z,85.63
2018-12-20T16:51:12.757Z,85.16
2018-12-20T16:53:42.105Z,85.10
2018-12-20T16:56:12.726Z,85.73
2018-12-20T16:58:41.503Z,85.29
2018-12-20T17:01:10.340Z,85.24
2018-12-20T17:03:39.154Z,85.54
2018-12-20T17:06:07.946Z,85.54
2018-12-20T17:08:36.742Z,85.60
2018-12-20T17:11:05.547Z,85.16
2018-12-20T17:13:34.462Z,85.38
2018-12-20T17:16:03.396Z,85.49
2018-12-20T17:18:32.256Z,85.39
2018-12-20T17:21:01.043Z,85.26
2018-12-20T17:23:35.687Z,85.43
2018-12-20T17:26:04.023Z,85.29
2018-12-20T17:28:32.833Z,85.43
2018-12-20T17:31:01.626Z,85.43
2018-12-20T17:33:30.663Z,85.38
2018-12-20T17:35:59.432Z,85.70
2018-12-20T17:38:28.280Z,85.46
2018-12-20T17:40:57.119Z,85.36
2018-12-20T17:43:25.932Z,85.54
2018-12-20T17:45:54.764Z,85.09
2018-12-20T17:48:28.990Z,85.10
2018-12-20T17:50:54.340Z,85.55
2018-12-20T17:53:24.367Z,85.15
2018-12-20T17:55:53.152Z,84.90
2018-12-20T17:58:22.627Z,84.91
2018-12-20T18:00:52.354Z,85.01
2018-12-20T18:03:24.432Z,84.95
2018-12-20T18:05:54.344Z,84.87
2018-12-20T18:08:23.155Z,85.03
2018-12-20T18:10:53.131Z,84.86
2018-12-20T18:13:21.940Z,84.81
2018-12-20T18:15:50.727Z,84.76
2018-12-20T18:18:20.973Z,85.16
2018-12-20T18:20:51.071Z,85.21
2018-12-20T18:23:20.474Z,85.08
2018-12-20T18:25:49.272Z,85.38
2018-12-20T18:28:18.087Z,85.32
2018-12-20T18:30:46.880Z,85.43
2018-12-20T18:33:15.678Z,85.41
2018-12-20T18:35:44.465Z,85.51
2018-12-20T18:38:13.348Z,85.51
2018-12-20T18:40:42.226Z,85.38
2018-12-20T18:43:10.980Z,85.46
2018-12-20T18:45:39.883Z,85.57
2018-12-20T18:48:08.660Z,85.44
2018-12-20T18:50:37.564Z,85.42
2018-12-20T18:53:06.350Z,85.33
2018-12-20T18:55:35.148Z,85.37
2018-12-20T18:58:03.939Z,85.36
2018-12-20T19:00:35.996Z,85.45
2018-12-20T19:03:03.161Z,85.32
2018-12-20T19:05:32.075Z,85.39
2018-12-20T19:08:00.862Z,85.42
2018-12-20T19:10:30.980Z,85.51
2018-12-20T19:13:00.171Z,85.61
2018-12-20T19:15:29.051Z,85.29
2018-12-20T19:17:57.840Z,85.31
2018-12-20T19:20:27.826Z,85.20
2018-12-20T19:22:56.622Z,85.57
2018-12-20T19:25:25.488Z,85.27
2018-12-20T19:27:54.952Z,85.06
2018-12-20T19:30:23.749Z,85.21
2018-12-20T19:32:52.540Z,85.22
2018-12-20T19:35:21.351Z,85.34
2018-12-20T19:37:50.155Z,85.25
2018-12-20T19:40:19.078Z,85.82
2018-12-20T19:42:48.567Z,85.15
2018-12-20T19:45:18.271Z,85.10
2018-12-20T19:47:47.944Z,85.17
2018-12-20T19:50:17.557Z,85.26
2018-12-20T19:52:47.070Z,85.07
2018-12-20T19:55:15.892Z,85.14
2018-12-20T19:57:44.846Z,85.04
2018-12-20T20:00:16.719Z,85.18
2018-12-20T20:02:45.511Z,85.23
2018-12-20T20:05:14.327Z,84.96
2018-12-20T20:07:43.127Z,84.96
2018-12-20T20:10:14.164Z,84.90
2018-12-20T20:12:42.988Z,84.65
2018-12-20T20:15:16.678Z,84.91
2018-12-20T20:17:43.349Z,84.63
2018-12-20T20:20:14.182Z,84.68
2018-12-20T20:22:41.703Z,85.06
2018-12-20T20:25:10.499Z,85.02
2018-12-20T20:27:39.300Z,84.64
2018-12-20T20:30:13.464Z,84.78
2018-12-20T20:32:40.397Z,84.51
2018-12-20T20:35:09.222Z,84.62
2018-12-20T20:37:38.013Z,84.64
2018-12-20T20:40:09.424Z,84.85
2018-12-20T20:42:38.215Z,84.77
2018-12-20T20:45:07.271Z,84.75
2018-12-20T20:47:36.073Z,84.31
2018-12-20T20:50:06.274Z,84.56
2018-12-20T20:52:35.083Z,84.53
2018-12-20T20:55:05.750Z,85.12
2018-12-20T20:57:34.124Z,84.36
2018-12-20T21:00:03.099Z,84.27
2018-12-20T21:02:31.976Z,84.31
2018-12-20T21:05:00.782Z,84.26
2018-12-20T21:07:29.564Z,84.12
2018-12-20T21:09:58.367Z,84.54
2018-12-20T21:12:27.156Z,84.40
2018-12-20T21:14:56.487Z,84.25
2018-12-20T21:17:25.270Z,84.39
2018-12-20T21:19:54.166Z,84.33
2018-12-20T21:22:23.011Z,84.39
2018-12-20T21:24:51.803Z,84.46
2018-12-20T21:27:20.595Z,84.44
2018-12-20T21:29:49.408Z,84.60
2018-12-20T21:32:18.241Z,84.43
2018-12-20T21:34:47.998Z,84.01
2018-12-20T21:37:20.959Z,84.25
2018-12-20T21:39:49.753Z,84.40
2018-12-20T21:42:18.552Z,84.54
2018-12-20T21:44:47.355Z,84.36
2018-12-20T21:47:17.336Z,84.27
2018-12-20T21:49:46.090Z,84.13
2018-12-20T21:52:14.919Z,84.49
2018-12-20T21:54:43.735Z,84.36
2018-12-20T21:57:13.035Z,84.18
2018-12-20T21:59:42.398Z,84.38
2018-12-20T22:02:11.185Z,84.72
2018-12-20T22:04:40.039Z,85.12
2018-12-20T22:07:09.499Z,85.22
2018-12-20T22:09:38.287Z,85.54
2018-12-20T22:12:07.071Z,85.65
2018-12-20T22:14:35.880Z,86.18
2018-12-20T22:17:04.648Z,86.46
2018-12-20T22:19:33.452Z,86.64
2018-12-20T22:22:02.262Z,86.37
2018-12-20T22:24:32.181Z,86.86
2018-12-20T22:27:00.962Z,86.78
2018-12-20T22:29:30.800Z,87.33
2018-12-20T22:32:00.636Z,87.27
2018-12-20T22:34:29.429Z,87.52
2018-12-20T22:36:58.249Z,87.71
2018-12-20T22:39:27.031Z,87.57
2018-12-20T22:41:55.838Z,87.67
2018-12-20T22:44:24.624Z,87.76
2018-12-20T22:46:53.416Z,87.55
2018-12-20T22:49:22.212Z,87.72
2018-12-20T22:51:50.996Z,87.67
2018-12-20T22:54:21.603Z,88.00
2018-12-20T22:56:51.219Z,87.78
2018-12-20T22:59:20.627Z,87.81
2018-12-20T23:01:49.430Z,87.72
2018-12-20T23:04:18.251Z,87.69
2018-12-20T23:06:47.991Z,87.75
2018-12-20T23:09:16.853Z,87.46
2018-12-20T23:11:46.601Z,87.59
2018-12-20T23:14:15.376Z,87.66
2018-12-20T23:16:44.166Z,87.80
2018-12-20T23:19:13.071Z,87.84
2018-12-20T23:21:42.035Z,87.47
2018-12-20T23:24:10.927Z,87.41
2018-12-20T23:26:39.725Z,87.72
2018-12-20T23:29:08.555Z,87.69
2018-12-20T23:31:38.003Z,87.44
2018-12-20T23:34:06.820Z,87.50
2018-12-20T23:36:35.610Z,87.88
2018-12-20T23:39:05.856Z,87.61
2018-12-20T23:41:35.909Z,87.67
2018-12-20T23:44:04.699Z,87.86
2018-12-20T23:46:33.491Z,87.53
2018-12-20T23:49:03.199Z,87.84
2018-12-20T23:51:32.252Z,87.67
2018-12-20T23:54:01.053Z,87.87
2018-12-20T23:56:29.889Z,88.06
2018-12-20T23:58:58.679Z,88.01
